sensor_id;sensor_type;location;lat;lon;timestamp;P1;durP1;ratioP1;P2;durP2;ratioP2
48627;SDS011;34424;52.234;6.500;2023-03-18T00:01:58;6.60;;;3.67;;
48627;SDS011;34424;52.234;6.500;2023-03-18T00:07:02;5.18;;;3.10;;
48627;SDS011;34424;52.234;6.500;2023-03-18T00:12:05;6.85;;;3.60;;
48627;SDS011;34424;52.234;6.500;2023-03-18T00:17:08;6.40;;;3.70;;
48627;SDS011;34424;52.234;6.500;2023-03-18T00:22:12;6.43;;;4.55;;
48627;SDS011;34424;52.234;6.500;2023-03-18T00:27:15;7.60;;;4.20;;
48627;SDS011;34424;52.234;6.500;2023-03-18T00:32:18;8.07;;;3.90;;
48627;SDS011;34424;52.234;6.500;2023-03-18T00:42:31;8.18;;;4.88;;
48627;SDS011;34424;52.234;6.500;2023-03-18T00:47:39;5.70;;;4.15;;
48627;SDS011;34424;52.234;6.500;2023-03-18T00:52:43;9.13;;;5.07;;
48627;SDS011;34424;52.234;6.500;2023-03-18T00:57:46;5.63;;;4.10;;
48627;SDS011;34424;52.234;6.500;2023-03-18T01:02:48;8.17;;;5.50;;
48627;SDS011;34424;52.234;6.500;2023-03-18T01:07:52;11.57;;;6.50;;
48627;SDS011;34424;52.234;6.500;2023-03-18T01:12:55;10.07;;;5.47;;
48627;SDS011;34424;52.234;6.500;2023-03-18T01:17:58;8.57;;;4.80;;
48627;SDS011;34424;52.234;6.500;2023-03-18T01:23:02;8.00;;;5.88;;
48627;SDS011;34424;52.234;6.500;2023-03-18T01:28:05;7.55;;;5.30;;
48627;SDS011;34424;52.234;6.500;2023-03-18T01:33:08;8.73;;;5.30;;
48627;SDS011;34424;52.234;6.500;2023-03-18T01:38:12;9.20;;;5.93;;
48627;SDS011;34424;52.234;6.500;2023-03-18T01:43:17;12.18;;;6.75;;
48627;SDS011;34424;52.234;6.500;2023-03-18T01:48:21;7.43;;;6.10;;
48627;SDS011;34424;52.234;6.500;2023-03-18T01:53:28;11.13;;;5.95;;
48627;SDS011;34424;52.234;6.500;2023-03-18T01:58:37;15.38;;;6.82;;
48627;SDS011;34424;52.234;6.500;2023-03-18T02:03:43;10.35;;;6.82;;
48627;SDS011;34424;52.234;6.500;2023-03-18T02:08:51;9.77;;;6.43;;
48627;SDS011;34424;52.234;6.500;2023-03-18T02:13:54;10.90;;;6.90;;
48627;SDS011;34424;52.234;6.500;2023-03-18T02:18:58;8.88;;;6.57;;
48627;SDS011;34424;52.234;6.500;2023-03-18T02:24:11;11.20;;;7.32;;
48627;SDS011;34424;52.234;6.500;2023-03-18T02:29:23;11.80;;;7.05;;
48627;SDS011;34424;52.234;6.500;2023-03-18T02:34:29;12.43;;;7.82;;
48627;SDS011;34424;52.234;6.500;2023-03-18T02:39:32;8.18;;;6.95;;
48627;SDS011;34424;52.234;6.500;2023-03-18T02:44:38;10.18;;;6.68;;
48627;SDS011;34424;52.234;6.500;2023-03-18T02:49:43;11.38;;;7.57;;
48627;SDS011;34424;52.234;6.500;2023-03-18T02:54:45;10.53;;;6.63;;
48627;SDS011;34424;52.234;6.500;2023-03-18T02:59:53;11.73;;;7.90;;
48627;SDS011;34424;52.234;6.500;2023-03-18T03:04:55;10.90;;;7.97;;
48627;SDS011;34424;52.234;6.500;2023-03-18T03:09:58;8.63;;;7.10;;
48627;SDS011;34424;52.234;6.500;2023-03-18T03:15:02;11.95;;;8.48;;
48627;SDS011;34424;52.234;6.500;2023-03-18T03:20:08;10.00;;;7.65;;
48627;SDS011;34424;52.234;6.500;2023-03-18T03:25:12;11.50;;;8.35;;
48627;SDS011;34424;52.234;6.500;2023-03-18T03:30:17;11.75;;;8.15;;
48627;SDS011;34424;52.234;6.500;2023-03-18T03:35:19;16.05;;;10.10;;
48627;SDS011;34424;52.234;6.500;2023-03-18T03:40:23;19.45;;;8.52;;
48627;SDS011;34424;52.234;6.500;2023-03-18T03:45:29;11.02;;;8.40;;
48627;SDS011;34424;52.234;6.500;2023-03-18T03:50:32;13.02;;;8.77;;
48627;SDS011;34424;52.234;6.500;2023-03-18T03:55:35;12.27;;;9.43;;
48627;SDS011;34424;52.234;6.500;2023-03-18T04:00:39;15.65;;;9.70;;
48627;SDS011;34424;52.234;6.500;2023-03-18T04:05:42;15.93;;;11.43;;
48627;SDS011;34424;52.234;6.500;2023-03-18T04:10:44;17.77;;;11.37;;
48627;SDS011;34424;52.234;6.500;2023-03-18T04:15:49;16.65;;;11.45;;
48627;SDS011;34424;52.234;6.500;2023-03-18T04:20:52;17.02;;;10.38;;
48627;SDS011;34424;52.234;6.500;2023-03-18T04:25:55;17.20;;;11.50;;
48627;SDS011;34424;52.234;6.500;2023-03-18T04:31:00;21.27;;;13.63;;
48627;SDS011;34424;52.234;6.500;2023-03-18T04:36:03;19.70;;;13.90;;
48627;SDS011;34424;52.234;6.500;2023-03-18T04:41:06;21.98;;;14.23;;
48627;SDS011;34424;52.234;6.500;2023-03-18T04:46:10;21.90;;;14.63;;
48627;SDS011;34424;52.234;6.500;2023-03-18T04:51:13;19.90;;;15.32;;
48627;SDS011;34424;52.234;6.500;2023-03-18T04:56:16;27.08;;;15.75;;
48627;SDS011;34424;52.234;6.500;2023-03-18T05:06:24;27.00;;;17.10;;
48627;SDS011;34424;52.234;6.500;2023-03-18T05:11:28;31.63;;;18.98;;
48627;SDS011;34424;52.234;6.500;2023-03-18T05:16:32;39.73;;;21.40;;
48627;SDS011;34424;52.234;6.500;2023-03-18T05:21:36;27.05;;;19.73;;
48627;SDS011;34424;52.234;6.500;2023-03-18T05:26:39;35.30;;;23.40;;
48627;SDS011;34424;52.234;6.500;2023-03-18T05:31:42;30.80;;;21.55;;
48627;SDS011;34424;52.234;6.500;2023-03-18T05:36:45;37.20;;;24.17;;
48627;SDS011;34424;52.234;6.500;2023-03-18T05:41:48;39.10;;;23.77;;
48627;SDS011;34424;52.234;6.500;2023-03-18T05:46:52;43.43;;;27.37;;
48627;SDS011;34424;52.234;6.500;2023-03-18T05:51:55;46.35;;;27.50;;
48627;SDS011;34424;52.234;6.500;2023-03-18T05:56:57;44.43;;;28.53;;
48627;SDS011;34424;52.234;6.500;2023-03-18T06:02:01;39.00;;;25.63;;
48627;SDS011;34424;52.234;6.500;2023-03-18T06:07:04;38.75;;;26.27;;
48627;SDS011;34424;52.234;6.500;2023-03-18T06:12:07;40.20;;;27.63;;
48627;SDS011;34424;52.234;6.500;2023-03-18T06:17:11;43.22;;;28.45;;
48627;SDS011;34424;52.234;6.500;2023-03-18T06:22:14;43.63;;;26.25;;
48627;SDS011;34424;52.234;6.500;2023-03-18T06:27:17;40.17;;;26.20;;
48627;SDS011;34424;52.234;6.500;2023-03-18T06:32:22;44.97;;;27.23;;
48627;SDS011;34424;52.234;6.500;2023-03-18T06:37:24;44.83;;;27.02;;
48627;SDS011;34424;52.234;6.500;2023-03-18T06:42:28;38.53;;;25.60;;
48627;SDS011;34424;52.234;6.500;2023-03-18T06:47:33;37.22;;;25.55;;
48627;SDS011;34424;52.234;6.500;2023-03-18T06:52:36;46.53;;;25.15;;
48627;SDS011;34424;52.234;6.500;2023-03-18T06:57:39;42.70;;;26.57;;
48627;SDS011;34424;52.234;6.500;2023-03-18T07:02:43;44.17;;;25.15;;
48627;SDS011;34424;52.234;6.500;2023-03-18T07:07:46;41.03;;;24.38;;
48627;SDS011;34424;52.234;6.500;2023-03-18T07:12:49;36.47;;;23.70;;
48627;SDS011;34424;52.234;6.500;2023-03-18T07:17:54;35.83;;;23.05;;
48627;SDS011;34424;52.234;6.500;2023-03-18T07:22:56;34.40;;;22.20;;
48627;SDS011;34424;52.234;6.500;2023-03-18T07:27:59;34.63;;;23.33;;
48627;SDS011;34424;52.234;6.500;2023-03-18T07:33:03;31.00;;;18.57;;
48627;SDS011;34424;52.234;6.500;2023-03-18T07:38:06;27.15;;;17.85;;
48627;SDS011;34424;52.234;6.500;2023-03-18T07:43:09;24.13;;;15.82;;
48627;SDS011;34424;52.234;6.500;2023-03-18T07:48:14;24.63;;;16.77;;
48627;SDS011;34424;52.234;6.500;2023-03-18T07:53:16;21.80;;;16.38;;
48627;SDS011;34424;52.234;6.500;2023-03-18T07:58:19;24.13;;;15.80;;
48627;SDS011;34424;52.234;6.500;2023-03-18T08:03:23;25.15;;;16.00;;
48627;SDS011;34424;52.234;6.500;2023-03-18T08:08:26;24.08;;;15.57;;
48627;SDS011;34424;52.234;6.500;2023-03-18T08:13:29;22.95;;;15.57;;
48627;SDS011;34424;52.234;6.500;2023-03-18T08:18:33;20.15;;;15.35;;
48627;SDS011;34424;52.234;6.500;2023-03-18T08:23:36;23.17;;;13.02;;
48627;SDS011;34424;52.234;6.500;2023-03-18T08:28:39;19.05;;;11.88;;
48627;SDS011;34424;52.234;6.500;2023-03-18T08:33:44;16.70;;;11.70;;
48627;SDS011;34424;52.234;6.500;2023-03-18T08:38:47;17.80;;;12.48;;
48627;SDS011;34424;52.234;6.500;2023-03-18T08:43:50;16.20;;;11.60;;
48627;SDS011;34424;52.234;6.500;2023-03-18T08:48:57;17.88;;;12.45;;
48627;SDS011;34424;52.234;6.500;2023-03-18T08:54:00;19.63;;;13.07;;
48627;SDS011;34424;52.234;6.500;2023-03-18T08:59:02;17.05;;;13.15;;
48627;SDS011;34424;52.234;6.500;2023-03-18T09:09:09;19.27;;;12.80;;
48627;SDS011;34424;52.234;6.500;2023-03-18T09:14:12;15.45;;;12.15;;
48627;SDS011;34424;52.234;6.500;2023-03-18T09:19:16;15.55;;;11.95;;
48627;SDS011;34424;52.234;6.500;2023-03-18T09:24:18;15.52;;;12.65;;
48627;SDS011;34424;52.234;6.500;2023-03-18T09:34:25;15.27;;;13.23;;
48627;SDS011;34424;52.234;6.500;2023-03-18T09:39:28;17.70;;;11.95;;
48627;SDS011;34424;52.234;6.500;2023-03-18T09:44:32;22.98;;;12.77;;
48627;SDS011;34424;52.234;6.500;2023-03-18T09:49:42;22.65;;;13.52;;
48627;SDS011;34424;52.234;6.500;2023-03-18T09:54:55;12.73;;;10.55;;
48627;SDS011;34424;52.234;6.500;2023-03-18T10:00:03;15.38;;;10.32;;
48627;SDS011;34424;52.234;6.500;2023-03-18T10:05:12;12.45;;;9.82;;
48627;SDS011;34424;52.234;6.500;2023-03-18T10:10:19;16.63;;;9.35;;
48627;SDS011;34424;52.234;6.500;2023-03-18T10:15:26;10.50;;;8.25;;
48627;SDS011;34424;52.234;6.500;2023-03-18T10:20:36;8.93;;;8.13;;
48627;SDS011;34424;52.234;6.500;2023-03-18T10:25:55;11.00;;;7.55;;
48627;SDS011;34424;52.234;6.500;2023-03-18T10:31:05;10.75;;;7.80;;
48627;SDS011;34424;52.234;6.500;2023-03-18T10:36:21;8.70;;;7.15;;
48627;SDS011;34424;52.234;6.500;2023-03-18T10:41:29;9.27;;;7.05;;
48627;SDS011;34424;52.234;6.500;2023-03-18T10:46:35;7.18;;;5.50;;
48627;SDS011;34424;52.234;6.500;2023-03-18T10:51:42;7.93;;;5.93;;
48627;SDS011;34424;52.234;6.500;2023-03-18T10:56:51;8.35;;;6.80;;
48627;SDS011;34424;52.234;6.500;2023-03-18T11:01:56;8.10;;;6.68;;
48627;SDS011;34424;52.234;6.500;2023-03-18T11:07:04;8.80;;;6.40;;
48627;SDS011;34424;52.234;6.500;2023-03-18T11:12:15;9.03;;;6.00;;
48627;SDS011;34424;52.234;6.500;2023-03-18T11:17:20;6.35;;;5.43;;
48627;SDS011;34424;52.234;6.500;2023-03-18T11:22:25;6.35;;;5.60;;
48627;SDS011;34424;52.234;6.500;2023-03-18T11:27:33;7.20;;;6.50;;
48627;SDS011;34424;52.234;6.500;2023-03-18T11:32:45;7.70;;;6.32;;
48627;SDS011;34424;52.234;6.500;2023-03-18T11:37:56;7.78;;;5.55;;
48627;SDS011;34424;52.234;6.500;2023-03-18T11:43:11;6.93;;;4.47;;
48627;SDS011;34424;52.234;6.500;2023-03-18T11:48:22;4.60;;;3.80;;
48627;SDS011;34424;52.234;6.500;2023-03-18T11:53:36;4.97;;;4.35;;
48627;SDS011;34424;52.234;6.500;2023-03-18T11:59:07;4.80;;;4.13;;
48627;SDS011;34424;52.234;6.500;2023-03-18T12:04:50;6.40;;;5.43;;
48627;SDS011;34424;52.234;6.500;2023-03-18T12:10:17;6.90;;;5.05;;
48627;SDS011;34424;52.234;6.500;2023-03-18T12:15:27;5.03;;;4.47;;
48627;SDS011;34424;52.234;6.500;2023-03-18T12:20:42;5.80;;;4.50;;
48627;SDS011;34424;52.234;6.500;2023-03-18T12:25:59;5.30;;;4.28;;
48627;SDS011;34424;52.234;6.500;2023-03-18T12:31:08;5.05;;;4.47;;
48627;SDS011;34424;52.234;6.500;2023-03-18T12:36:36;6.45;;;4.88;;
48627;SDS011;34424;52.234;6.500;2023-03-18T12:41:54;5.60;;;4.03;;
48627;SDS011;34424;52.234;6.500;2023-03-18T12:47:03;4.60;;;4.20;;
48627;SDS011;34424;52.234;6.500;2023-03-18T12:52:10;3.80;;;3.47;;
48627;SDS011;34424;52.234;6.500;2023-03-18T12:57:25;4.22;;;3.83;;
48627;SDS011;34424;52.234;6.500;2023-03-18T13:02:36;6.83;;;4.17;;
48627;SDS011;34424;52.234;6.500;2023-03-18T13:07:44;3.15;;;2.88;;
48627;SDS011;34424;52.234;6.500;2023-03-18T13:12:53;4.43;;;3.30;;
48627;SDS011;34424;52.234;6.500;2023-03-18T13:17:59;3.67;;;3.17;;
48627;SDS011;34424;52.234;6.500;2023-03-18T13:23:11;5.65;;;3.50;;
48627;SDS011;34424;52.234;6.500;2023-03-18T13:28:35;3.53;;;2.38;;
48627;SDS011;34424;52.234;6.500;2023-03-18T13:39:25;3.65;;;3.35;;
48627;SDS011;34424;52.234;6.500;2023-03-18T13:44:46;5.57;;;3.45;;
48627;SDS011;34424;52.234;6.500;2023-03-18T13:49:57;3.33;;;2.57;;
48627;SDS011;34424;52.234;6.500;2023-03-18T13:55:02;5.28;;;4.45;;
48627;SDS011;34424;52.234;6.500;2023-03-18T14:00:21;2.75;;;2.20;;
48627;SDS011;34424;52.234;6.500;2023-03-18T14:05:37;4.50;;;2.78;;
48627;SDS011;34424;52.234;6.500;2023-03-18T14:10:42;11.27;;;6.88;;
48627;SDS011;34424;52.234;6.500;2023-03-18T14:20:51;3.75;;;2.97;;
48627;SDS011;34424;52.234;6.500;2023-03-18T14:25:58;3.92;;;2.75;;
48627;SDS011;34424;52.234;6.500;2023-03-18T14:31:14;2.80;;;2.58;;
48627;SDS011;34424;52.234;6.500;2023-03-18T14:36:26;5.82;;;4.45;;
48627;SDS011;34424;52.234;6.500;2023-03-18T14:41:41;5.25;;;4.32;;
48627;SDS011;34424;52.234;6.500;2023-03-18T14:46:49;7.35;;;5.00;;
48627;SDS011;34424;52.234;6.500;2023-03-18T14:51:53;7.88;;;5.47;;
48627;SDS011;34424;52.234;6.500;2023-03-18T15:02:00;2.70;;;2.20;;
48627;SDS011;34424;52.234;6.500;2023-03-18T15:07:04;3.75;;;2.67;;
48627;SDS011;34424;52.234;6.500;2023-03-18T15:12:15;4.70;;;3.65;;
48627;SDS011;34424;52.234;6.500;2023-03-18T15:17:22;5.15;;;2.72;;
48627;SDS011;34424;52.234;6.500;2023-03-18T15:22:28;3.03;;;2.50;;
48627;SDS011;34424;52.234;6.500;2023-03-18T15:27:33;5.65;;;2.33;;
48627;SDS011;34424;52.234;6.500;2023-03-18T15:32:43;2.40;;;1.40;;
48627;SDS011;34424;52.234;6.500;2023-03-18T15:38:04;2.03;;;1.20;;
48627;SDS011;34424;52.234;6.500;2023-03-18T15:43:11;3.10;;;1.60;;
48627;SDS011;34424;52.234;6.500;2023-03-18T15:48:23;3.88;;;1.63;;
48627;SDS011;34424;52.234;6.500;2023-03-18T15:53:33;2.03;;;1.38;;
48627;SDS011;34424;52.234;6.500;2023-03-18T15:58:42;2.65;;;1.50;;
48627;SDS011;34424;52.234;6.500;2023-03-18T16:03:47;2.53;;;1.30;;
48627;SDS011;34424;52.234;6.500;2023-03-18T16:08:51;2.75;;;1.50;;
48627;SDS011;34424;52.234;6.500;2023-03-18T16:13:55;2.70;;;1.45;;
48627;SDS011;34424;52.234;6.500;2023-03-18T16:18:59;2.65;;;2.10;;
48627;SDS011;34424;52.234;6.500;2023-03-18T16:24:02;3.65;;;2.17;;
48627;SDS011;34424;52.234;6.500;2023-03-18T16:29:11;5.30;;;2.20;;
48627;SDS011;34424;52.234;6.500;2023-03-18T16:34:17;4.00;;;2.42;;
48627;SDS011;34424;52.234;6.500;2023-03-18T16:39:22;4.13;;;2.35;;
48627;SDS011;34424;52.234;6.500;2023-03-18T16:44:27;4.18;;;2.58;;
48627;SDS011;34424;52.234;6.500;2023-03-18T16:49:32;5.03;;;2.42;;
48627;SDS011;34424;52.234;6.500;2023-03-18T16:54:36;2.70;;;2.42;;
48627;SDS011;34424;52.234;6.500;2023-03-18T16:59:39;3.00;;;2.58;;
48627;SDS011;34424;52.234;6.500;2023-03-18T17:04:49;4.18;;;3.10;;
48627;SDS011;34424;52.234;6.500;2023-03-18T17:09:52;5.05;;;3.00;;
48627;SDS011;34424;52.234;6.500;2023-03-18T17:14:54;8.43;;;3.63;;
48627;SDS011;34424;52.234;6.500;2023-03-18T17:20:01;5.40;;;3.60;;
48627;SDS011;34424;52.234;6.500;2023-03-18T17:25:06;6.40;;;3.78;;
48627;SDS011;34424;52.234;6.500;2023-03-18T17:35:21;5.72;;;4.60;;
48627;SDS011;34424;52.234;6.500;2023-03-18T17:40:27;5.25;;;4.35;;
48627;SDS011;34424;52.234;6.500;2023-03-18T17:45:32;9.38;;;6.72;;
48627;SDS011;34424;52.234;6.500;2023-03-18T17:50:38;4.93;;;3.80;;
48627;SDS011;34424;52.234;6.500;2023-03-18T17:55:41;4.68;;;3.88;;
48627;SDS011;34424;52.234;6.500;2023-03-18T18:00:44;6.53;;;5.20;;
48627;SDS011;34424;52.234;6.500;2023-03-18T18:05:49;4.65;;;4.03;;
48627;SDS011;34424;52.234;6.500;2023-03-18T18:10:53;8.63;;;5.75;;
48627;SDS011;34424;52.234;6.500;2023-03-18T18:16:01;10.50;;;8.80;;
48627;SDS011;34424;52.234;6.500;2023-03-18T18:21:08;5.67;;;5.13;;
48627;SDS011;34424;52.234;6.500;2023-03-18T18:26:15;7.75;;;5.90;;
48627;SDS011;34424;52.234;6.500;2023-03-18T18:31:20;10.88;;;7.82;;
48627;SDS011;34424;52.234;6.500;2023-03-18T18:36:25;7.63;;;5.47;;
48627;SDS011;34424;52.234;6.500;2023-03-18T18:41:28;7.85;;;7.05;;
48627;SDS011;34424;52.234;6.500;2023-03-18T18:46:31;10.23;;;7.60;;
48627;SDS011;34424;52.234;6.500;2023-03-18T18:56:38;10.43;;;8.80;;
48627;SDS011;34424;52.234;6.500;2023-03-18T19:01:41;9.97;;;7.97;;
48627;SDS011;34424;52.234;6.500;2023-03-18T19:06:44;10.63;;;7.77;;
48627;SDS011;34424;52.234;6.500;2023-03-18T19:11:49;9.40;;;8.20;;
48627;SDS011;34424;52.234;6.500;2023-03-18T19:16:54;11.75;;;9.77;;
48627;SDS011;34424;52.234;6.500;2023-03-18T19:22:00;13.73;;;10.65;;
48627;SDS011;34424;52.234;6.500;2023-03-18T19:27:04;14.18;;;11.27;;
48627;SDS011;34424;52.234;6.500;2023-03-18T19:32:13;15.75;;;12.73;;
48627;SDS011;34424;52.234;6.500;2023-03-18T19:37:21;14.20;;;12.55;;
48627;SDS011;34424;52.234;6.500;2023-03-18T19:42:26;15.80;;;12.40;;
48627;SDS011;34424;52.234;6.500;2023-03-18T19:52:33;20.20;;;15.43;;
48627;SDS011;34424;52.234;6.500;2023-03-18T19:57:36;18.88;;;15.20;;
48627;SDS011;34424;52.234;6.500;2023-03-18T20:02:39;23.05;;;16.58;;
48627;SDS011;34424;52.234;6.500;2023-03-18T20:07:43;23.27;;;16.97;;
48627;SDS011;34424;52.234;6.500;2023-03-18T20:12:46;24.13;;;18.60;;
48627;SDS011;34424;52.234;6.500;2023-03-18T20:17:50;26.80;;;20.00;;
48627;SDS011;34424;52.234;6.500;2023-03-18T20:22:56;31.65;;;23.58;;
48627;SDS011;34424;52.234;6.500;2023-03-18T20:28:01;32.17;;;23.25;;
48627;SDS011;34424;52.234;6.500;2023-03-18T20:38:11;29.73;;;21.95;;
48627;SDS011;34424;52.234;6.500;2023-03-18T20:43:16;30.60;;;22.48;;
48627;SDS011;34424;52.234;6.500;2023-03-18T20:48:20;36.42;;;27.50;;
48627;SDS011;34424;52.234;6.500;2023-03-18T20:53:25;30.65;;;21.80;;
48627;SDS011;34424;52.234;6.500;2023-03-18T20:58:29;31.70;;;22.05;;
48627;SDS011;34424;52.234;6.500;2023-03-18T21:03:32;29.07;;;20.67;;
48627;SDS011;34424;52.234;6.500;2023-03-18T21:08:37;29.08;;;20.13;;
48627;SDS011;34424;52.234;6.500;2023-03-18T21:13:41;26.90;;;19.13;;
48627;SDS011;34424;52.234;6.500;2023-03-18T21:18:43;27.97;;;19.73;;
48627;SDS011;34424;52.234;6.500;2023-03-18T21:23:48;26.00;;;19.35;;
48627;SDS011;34424;52.234;6.500;2023-03-18T21:28:51;25.42;;;18.20;;
48627;SDS011;34424;52.234;6.500;2023-03-18T21:33:53;28.00;;;20.17;;
48627;SDS011;34424;52.234;6.500;2023-03-18T21:38:58;24.70;;;19.88;;
48627;SDS011;34424;52.234;6.500;2023-03-18T21:44:01;28.23;;;18.77;;
48627;SDS011;34424;52.234;6.500;2023-03-18T21:49:04;26.43;;;18.00;;
48627;SDS011;34424;52.234;6.500;2023-03-18T21:59:17;27.52;;;20.77;;
48627;SDS011;34424;52.234;6.500;2023-03-18T22:04:20;29.23;;;20.93;;
48627;SDS011;34424;52.234;6.500;2023-03-18T22:09:24;25.37;;;18.97;;
48627;SDS011;34424;52.234;6.500;2023-03-18T22:14:28;23.05;;;17.73;;
48627;SDS011;34424;52.234;6.500;2023-03-18T22:19:30;24.30;;;17.90;;
48627;SDS011;34424;52.234;6.500;2023-03-18T22:24:34;22.70;;;17.57;;
48627;SDS011;34424;52.234;6.500;2023-03-18T22:29:37;25.50;;;16.95;;
48627;SDS011;34424;52.234;6.500;2023-03-18T22:34:40;26.53;;;18.10;;
48627;SDS011;34424;52.234;6.500;2023-03-18T22:39:43;20.10;;;14.67;;
48627;SDS011;34424;52.234;6.500;2023-03-18T22:44:46;25.13;;;18.80;;
48627;SDS011;34424;52.234;6.500;2023-03-18T22:49:49;20.85;;;15.15;;
48627;SDS011;34424;52.234;6.500;2023-03-18T22:54:54;17.02;;;13.57;;
48627;SDS011;34424;52.234;6.500;2023-03-18T22:59:58;17.50;;;14.13;;
48627;SDS011;34424;52.234;6.500;2023-03-18T23:05:01;17.43;;;13.20;;
48627;SDS011;34424;52.234;6.500;2023-03-18T23:10:05;17.70;;;13.53;;
48627;SDS011;34424;52.234;6.500;2023-03-18T23:15:11;27.50;;;18.58;;
48627;SDS011;34424;52.234;6.500;2023-03-18T23:20:17;17.02;;;12.23;;
48627;SDS011;34424;52.234;6.500;2023-03-18T23:25:21;15.65;;;12.30;;
48627;SDS011;34424;52.234;6.500;2023-03-18T23:30:23;18.83;;;13.45;;
48627;SDS011;34424;52.234;6.500;2023-03-18T23:35:26;18.45;;;14.23;;
48627;SDS011;34424;52.234;6.500;2023-03-18T23:40:30;16.80;;;13.53;;
48627;SDS011;34424;52.234;6.500;2023-03-18T23:45:34;18.98;;;15.00;;
48627;SDS011;34424;52.234;6.500;2023-03-18T23:50:37;18.45;;;15.60;;
48627;SDS011;34424;52.234;6.500;2023-03-18T23:55:41;20.63;;;15.83;;
